Time;durP1;ratioP1;P1;durP2;ratioP2;P2;SDS_P1;SDS_P2;PMS_P1;PMS_P2;Temp;Humidity;BMP_temperature;BMP_pressure;BME280_temperature;BME280_humidity;BME280_pressure;Samples;Min_cycle;Max_cycle;Signal;HPM_P1;HPM_P2
2024/01/30 00:02:10;;;;;;;12.70;7.10;;;;;;;0.60;100.00;100956.31;5095696;28;20051;-65
2024/01/30 00:04:37;;;;;;;15.55;6.90;;;;;;;0.45;100.00;100981.22;5095745;28;20150;-65
2024/01/30 00:07:03;;;;;;;11.93;6.63;;;;;;;0.53;100.00;101006.13;5095937;28;20051;-67
2024/01/30 00:09:29;;;;;;;15.50;8.10;;;;;;;0.42;100.00;101041.09;5096017;28;20059;-66
2024/01/30 00:11:55;;;;;;;10.50;6.57;;;;;;;0.63;100.00;101044.03;5095597;28;20090;-66
2024/01/30 00:14:21;;;;;;;13.23;7.25;;;;;;;0.42;100.00;101059.97;5095831;28;20413;-67
2024/01/30 00:16:47;;;;;;;12.88;7.75;;;;;;;0.65;100.00;101077.81;5095479;28;20063;-66
2024/01/30 00:19:13;;;;;;;14.55;7.22;;;;;;;0.85;100.00;101017.00;5099150;28;20059;-67
2024/01/30 00:21:40;;;;;;;12.77;7.72;;;;;;;0.34;100.00;101006.47;5099092;28;20389;-66
2024/01/30 00:24:07;;;;;;;13.00;7.55;;;;;;;0.37;100.00;101026.75;5099518;28;20144;-66
2024/01/30 00:26:33;;;;;;;9.40;5.85;;;;;;;0.46;100.00;101079.19;5098930;28;20067;-67
2024/01/30 00:28:59;;;;;;;11.45;7.57;;;;;;;0.50;100.00;101066.84;5099441;28;20141;-66
2024/01/30 00:31:25;;;;;;;14.55;7.47;;;;;;;0.72;100.00;101088.41;5098850;28;20103;-67
2024/01/30 00:33:51;;;;;;;15.38;7.13;;;;;;;0.62;100.00;101078.31;5098868;28;20985;-66
2024/01/30 00:36:18;;;;;;;17.17;8.38;;;;;;;0.49;100.00;101050.88;5098795;28;20047;-67
2024/01/30 00:38:44;;;;;;;17.48;7.95;;;;;;;0.54;100.00;101103.06;5098778;28;20044;-66
2024/01/30 00:41:11;;;;;;;14.75;8.02;;;;;;;0.50;100.00;101074.94;5098892;28;20098;-65
2024/01/30 00:43:37;;;;;;;13.10;8.63;;;;;;;0.50;100.00;101068.69;5098764;28;20048;-67
2024/01/30 00:46:03;;;;;;;13.15;8.25;;;;;;;0.42;100.00;101078.06;5099013;28;20139;-66
2024/01/30 00:48:29;;;;;;;16.55;8.30;;;;;;;0.70;100.00;101104.06;5098621;28;20412;-67
2024/01/30 00:50:56;;;;;;;12.77;8.13;;;;;;;0.68;100.00;101057.59;5098782;28;20474;-66
2024/01/30 00:53:22;;;;;;;11.20;7.53;;;;;;;0.75;100.00;101057.41;5098577;28;20056;-67
2024/01/30 00:55:48;;;;;;;16.27;8.65;;;;;;;0.92;100.00;101041.91;5098876;28;20109;-66
2024/01/30 00:58:15;;;;;;;18.38;9.63;;;;;;;0.57;100.00;101004.59;5098479;28;20102;-66
2024/01/30 01:00:41;;;;;;;15.95;7.72;;;;;;;0.81;100.00;101010.50;5098953;28;20052;-67
2024/01/30 01:03:07;;;;;;;17.33;8.82;;;;;;;0.41;100.00;101001.69;5098382;28;20048;-66
2024/01/30 01:05:33;;;;;;;17.25;8.98;;;;;;;0.50;100.00;101028.22;5098353;28;20446;-67
2024/01/30 01:07:59;;;;;;;16.27;9.73;;;;;;;0.50;100.00;101028.22;5098383;28;20091;-67
2024/01/30 01:10:25;;;;;;;16.88;9.15;;;;;;;0.06;100.00;101091.06;5098541;28;20141;-66
2024/01/30 01:12:52;;;;;;;12.55;8.90;;;;;;;0.31;100.00;101152.66;5098446;28;20102;-66
2024/01/30 01:15:18;;;;;;;16.83;8.77;;;;;;;0.16;100.00;101169.41;5098255;28;20374;-67
2024/01/30 01:17:44;;;;;;;16.95;9.35;;;;;;;0.15;100.00;101189.38;5098481;28;20052;-66
2024/01/30 01:20:10;;;;;;;15.02;8.95;;;;;;;0.49;100.00;101192.03;5098154;28;20048;-66
2024/01/30 01:22:38;;;;;;;18.90;9.68;;;;;;;0.00;100.00;101178.34;5098542;28;20140;-66
2024/01/30 01:25:06;;;;;;;14.13;8.35;;;;;;;0.29;100.00;101203.34;5098095;28;20054;-66
2024/01/30 01:27:34;;;;;;;15.45;8.80;;;;;;;-0.10;100.00;101192.50;5098569;28;20052;-66
2024/01/30 01:30:01;;;;;;;17.27;9.50;;;;;;;0.22;100.00;101208.91;5097358;28;20302;-66
2024/01/30 01:32:27;;;;;;;19.20;10.13;;;;;;;0.19;100.00;101204.00;5098193;28;20052;-66
2024/01/30 01:34:53;;;;;;;16.40;9.18;;;;;;;0.02;100.00;101194.28;5097919;28;20051;-67
2024/01/30 01:37:22;;;;;;;18.20;9.05;;;;;;;-0.09;100.00;101198.69;5097760;28;20052;-66
2024/01/30 01:39:48;;;;;;;18.73;9.70;;;;;;;-0.25;100.00;101209.19;5098276;28;20044;-67
2024/01/30 01:42:14;;;;;;;13.40;7.88;;;;;;;-0.44;100.00;101226.63;5097774;28;20083;-66
2024/01/30 01:44:40;;;;;;;12.90;7.70;;;;;;;-0.51;100.00;101244.81;5098219;28;20362;-66
2024/01/30 01:47:06;;;;;;;16.27;8.00;;;;;;;-0.50;100.00;101254.53;5097777;28;20097;-68
2024/01/30 01:49:33;;;;;;;13.15;7.82;;;;;;;-0.50;100.00;101263.47;5098047;28;20098;-67
2024/01/30 01:51:59;;;;;;;14.40;8.05;;;;;;;-0.48;100.00;101274.00;5097573;28;20507;-66
2024/01/30 01:54:27;;;;;;;8.15;5.88;;;;;;;-0.69;100.00;101262.00;5098075;28;20124;-66
2024/01/30 01:56:53;;;;;;;15.88;9.55;;;;;;;-0.53;100.00;101277.41;5097412;28;20052;-66
2024/01/30 01:59:22;;;;;;;14.70;9.32;;;;;;;-0.56;100.00;101283.28;5097800;28;20048;-67
2024/01/30 02:01:49;;;;;;;12.50;7.35;;;;;;;-0.45;100.00;101276.22;5097766;28;20083;-66
2024/01/30 02:04:16;;;;;;;18.80;9.68;;;;;;;-0.50;100.00;101274.25;5097400;28;20143;-66
2024/01/30 02:06:43;;;;;;;20.13;8.75;;;;;;;-0.67;100.00;101265.25;5097570;28;20148;-66
2024/01/30 02:09:09;;;;;;;14.43;8.85;;;;;;;-0.52;100.00;101260.19;5097396;28;20377;-66
2024/01/30 02:11:36;;;;;;;17.55;9.25;;;;;;;-0.64;100.00;101264.78;5097741;28;20090;-66
2024/01/30 02:14:03;;;;;;;14.40;9.02;;;;;;;-0.35;100.00;101262.94;5097418;28;20083;-66
2024/01/30 02:16:29;;;;;;;16.45;9.23;;;;;;;-0.45;100.00;101261.91;5097547;28;20048;-66
2024/01/30 02:18:56;;;;;;;16.10;8.38;;;;;;;-0.75;100.00;101250.28;5097300;28;20327;-67
2024/01/30 02:21:22;;;;;;;18.27;9.18;;;;;;;-0.38;100.00;101260.72;5097678;28;20352;-66
2024/01/30 02:23:49;;;;;;;14.88;9.05;;;;;;;-0.67;100.00;101251.78;5097103;28;20515;-67
2024/01/30 02:26:15;;;;;;;14.20;9.05;;;;;;;-0.23;100.00;101249.41;5097016;28;20412;-67
2024/01/30 02:28:42;;;;;;;19.40;9.93;;;;;;;-0.24;100.00;101237.78;5097145;28;20075;-66
2024/01/30 02:31:08;;;;;;;17.17;9.85;;;;;;;-0.20;100.00;101235.44;5097265;28;20055;-66
2024/01/30 02:33:34;;;;;;;17.88;10.30;;;;;;;-0.26;100.00;101218.34;5097214;28;20094;-67
2024/01/30 02:36:00;;;;;;;18.30;9.50;;;;;;;-0.48;100.00;101220.91;5096821;28;20087;-66
2024/01/30 02:38:27;;;;;;;20.02;10.38;;;;;;;-0.37;100.00;101230.00;5097149;28;20369;-66
2024/01/30 02:40:53;;;;;;;19.27;10.32;;;;;;;-0.20;100.00;101221.13;5096830;28;20447;-67
2024/01/30 02:43:19;;;;;;;19.98;10.50;;;;;;;-0.15;100.00;101219.34;5097158;28;20051;-67
2024/01/30 02:45:45;;;;;;;20.48;10.57;;;;;;;-0.57;100.00;101208.88;5096818;28;20087;-66
2024/01/30 02:48:11;;;;;;;20.95;10.43;;;;;;;-0.27;100.00;101235.59;5097185;28;20096;-66
2024/01/30 02:50:37;;;;;;;17.35;10.13;;;;;;;-0.70;100.00;101222.63;5096896;28;20387;-66
2024/01/30 02:53:05;;;;;;;18.55;10.73;;;;;;;-0.44;100.00;101231.22;5097256;28;20055;-65
2024/01/30 02:55:32;;;;;;;16.48;9.88;;;;;;;-0.68;100.00;101236.69;5096583;28;20059;-67
2024/01/30 02:57:58;;;;;;;19.88;10.93;;;;;;;-0.54;100.00;101239.91;5096923;28;20442;-67
2024/01/30 03:00:24;;;;;;;16.80;9.75;;;;;;;-0.51;100.00;101229.47;5096725;28;20147;-66
2024/01/30 03:02:50;;;;;;;18.40;9.85;;;;;;;-0.69;100.00;101243.16;5096368;28;20101;-67
2024/01/30 03:05:16;;;;;;;18.38;9.43;;;;;;;-0.80;100.00;101243.97;5096912;28;20381;-66
2024/01/30 03:07:42;;;;;;;18.65;10.27;;;;;;;-0.69;100.00;101242.34;5096585;28;20083;-65
2024/01/30 03:10:09;;;;;;;19.35;10.52;;;;;;;-0.73;100.00;101240.13;5096686;28;20090;-67
2024/01/30 03:12:35;;;;;;;17.83;10.48;;;;;;;-0.61;100.00;101240.06;5096638;28;20087;-66
2024/01/30 03:15:01;;;;;;;24.25;12.27;;;;;;;-0.33;100.00;101252.72;5096732;28;20448;-66
2024/01/30 03:17:27;;;;;;;22.95;10.45;;;;;;;-0.23;100.00;101246.72;5096323;28;20105;-66
2024/01/30 03:19:53;;;;;;;19.95;10.23;;;;;;;-0.29;100.00;101226.94;5096861;28;20329;-66
2024/01/30 03:22:20;;;;;;;17.48;10.40;;;;;;;-0.48;100.00;101222.78;5096229;28;20080;-66
2024/01/30 03:24:46;;;;;;;20.58;10.85;;;;;;;-0.64;100.00;101227.06;5096228;28;20099;-66
2024/01/30 03:27:12;;;;;;;22.85;11.40;;;;;;;-0.35;100.00;101227.06;5096510;28;20083;-67
2024/01/30 03:29:38;;;;;;;19.52;10.82;;;;;;;-0.32;100.00;101226.59;5096224;28;20054;-66
2024/01/30 03:32:05;;;;;;;22.98;11.05;;;;;;;-0.28;100.00;101222.34;5096276;28;20044;-65
2024/01/30 03:34:31;;;;;;;16.70;10.20;;;;;;;-0.69;100.00;101210.81;5096127;28;20056;-66
2024/01/30 03:36:57;;;;;;;22.17;10.95;;;;;;;-0.40;100.00;101213.50;5096283;28;20148;-67
2024/01/30 03:39:24;;;;;;;20.08;11.13;;;;;;;-0.37;100.00;101210.31;5096172;28;20052;-66
2024/01/30 03:41:50;;;;;;;18.05;10.55;;;;;;;-0.50;100.00;101200.66;5096413;28;20474;-67
2024/01/30 03:44:16;;;;;;;20.38;11.38;;;;;;;-0.39;100.00;101197.09;5096007;28;20135;-67
2024/01/30 03:46:42;;;;;;;19.90;12.10;;;;;;;-0.68;100.00;101203.56;5096433;28;20091;-66
2024/01/30 03:49:10;;;;;;;18.67;11.65;;;;;;;-0.35;100.00;101216.28;5095963;28;20087;-66
2024/01/30 03:51:36;;;;;;;22.10;12.32;;;;;;;-0.22;100.00;101205.22;5096337;28;20135;-65
2024/01/30 03:54:02;;;;;;;21.00;10.65;;;;;;;-0.57;100.00;101190.03;5098978;28;20147;-67
2024/01/30 03:56:28;;;;;;;20.55;11.77;;;;;;;-0.59;100.00;101191.34;5099544;28;20083;-66
2024/01/30 03:58:55;;;;;;;23.58;11.73;;;;;;;-0.83;100.00;101194.13;5099526;28;20139;-66
2024/01/30 04:01:21;;;;;;;22.20;12.48;;;;;;;-0.95;100.00;101204.09;5099443;28;20052;-66
2024/01/30 04:03:48;;;;;;;21.83;10.60;;;;;;;-1.07;100.00;101208.69;5099360;28;20101;-66
2024/01/30 04:06:14;;;;;;;17.10;11.15;;;;;;;-0.97;100.00;101212.44;5099483;28;20083;-66
2024/01/30 04:08:40;;;;;;;18.77;11.18;;;;;;;-1.07;100.00;101203.31;5099782;28;20376;-67
2024/01/30 04:11:07;;;;;;;19.38;11.65;;;;;;;-0.85;100.00;101204.31;5099294;28;20087;-66
2024/01/30 04:13:33;;;;;;;25.30;12.52;;;;;;;-0.70;100.00;101211.84;5099651;28;20055;-66
2024/01/30 04:15:59;;;;;;;21.80;12.27;;;;;;;-0.87;100.00;101203.72;5099063;28;20083;-66
2024/01/30 04:18:26;;;;;;;23.02;12.30;;;;;;;-0.81;100.00;101204.66;5099645;28;20113;-66
2024/01/30 04:20:52;;;;;;;30.42;15.40;;;;;;;-0.50;100.00;101200.66;5098934;28;20056;-66
2024/01/30 04:23:18;;;;;;;26.23;12.93;;;;;;;-0.49;100.00;101196.91;5099004;28;20052;-66
2024/01/30 04:25:44;;;;;;;24.02;13.40;;;;;;;-0.61;100.00;101196.94;5099265;28;20388;-66
2024/01/30 04:28:11;;;;;;;23.52;12.73;;;;;;;-0.49;100.00;101186.13;5099143;28;20083;-65
2024/01/30 04:30:38;;;;;;;23.38;13.57;;;;;;;-0.53;100.00;101180.41;5099048;28;20047;-66
2024/01/30 04:33:04;;;;;;;26.20;13.50;;;;;;;-0.65;100.00;101173.44;5098812;28;20063;-66
2024/01/30 04:35:30;;;;;;;34.97;14.32;;;;;;;-0.78;100.00;101174.53;5099200;28;20143;-66
2024/01/30 04:37:57;;;;;;;29.67;13.95;;;;;;;-0.60;100.00;101185.13;5098941;28;20059;-66
2024/01/30 04:40:23;;;;;;;24.35;13.15;;;;;;;-0.91;100.00;101178.34;5099008;28;20055;-67
2024/01/30 04:42:50;;;;;;;25.63;14.20;;;;;;;-0.89;100.00;101184.31;5098672;28;20052;-66
2024/01/30 04:45:16;;;;;;;30.50;14.63;;;;;;;-1.06;100.00;101170.78;5099166;28;20048;-66
2024/01/30 04:47:42;;;;;;;23.73;12.70;;;;;;;-1.06;100.00;101186.94;5098466;28;20389;-66
2024/01/30 04:50:09;;;;;;;31.85;15.48;;;;;;;-0.93;100.00;101188.53;5098875;28;20045;-66
2024/01/30 04:52:36;;;;;;;29.50;15.05;;;;;;;-0.77;100.00;101189.63;5099096;28;20131;-66
2024/01/30 04:55:02;;;;;;;36.90;15.50;;;;;;;-0.58;100.00;101183.00;5098673;28;20078;-66
2024/01/30 04:57:29;;;;;;;28.40;14.68;;;;;;;-0.77;100.00;101182.41;5098596;28;20087;-66
2024/01/30 04:59:55;;;;;;;33.22;16.55;;;;;;;-1.09;100.00;101176.66;5098331;28;20055;-67
2024/01/30 05:02:21;;;;;;;35.13;17.13;;;;;;;-1.21;100.00;101175.84;5098469;28;20083;-67
2024/01/30 05:04:47;;;;;;;29.55;16.38;;;;;;;-1.10;100.00;101182.25;5097197;28;20055;-66
2024/01/30 05:07:13;;;;;;;30.50;15.48;;;;;;;-0.67;100.00;101180.94;5098412;28;20052;-67
2024/01/30 05:09:40;;;;;;;31.60;15.55;;;;;;;-0.42;100.00;101186.00;5098152;28;20440;-66
2024/01/30 05:12:07;;;;;;;40.13;17.90;;;;;;;-0.20;100.00;101175.31;5098182;28;20091;-65
2024/01/30 05:14:33;;;;;;;29.20;16.08;;;;;;;-0.06;100.00;101160.47;5098125;28;20442;-62
2024/01/30 05:16:59;;;;;;;29.13;15.70;;;;;;;0.11;100.00;101122.69;5098386;28;20185;-65
2024/01/30 05:19:26;;;;;;;35.90;16.50;;;;;;;0.03;100.00;101069.97;5097944;28;20047;-66
2024/01/30 05:21:52;;;;;;;33.97;14.90;;;;;;;0.03;100.00;101024.13;5098019;28;20088;-64
2024/01/30 05:24:18;;;;;;;29.17;14.43;;;;;;;-0.01;100.00;100986.06;5097893;28;20066;-65
2024/01/30 05:26:44;;;;;;;27.10;14.73;;;;;;;-0.01;100.00;100940.22;5097893;28;20051;-65
2024/01/30 05:29:11;;;;;;;25.63;13.57;;;;;;;0.22;100.00;100925.66;5097880;28;20409;-64
2024/01/30 05:31:37;;;;;;;34.70;13.93;;;;;;;0.10;100.00;100854.88;5097551;28;20136;-66
2024/01/30 05:34:03;;;;;;;38.28;15.13;;;;;;;0.13;100.00;100807.69;5097914;28;20313;-65
2024/01/30 05:36:29;;;;;;;30.92;14.88;;;;;;;0.18;100.00;100756.53;5097587;28;20052;-65
2024/01/30 05:38:56;;;;;;;35.10;15.55;;;;;;;0.14;100.00;100726.56;5098134;28;20378;-69
2024/01/30 05:41:22;;;;;;;28.90;15.02;;;;;;;0.19;100.00;100712.28;5097768;28;20386;-64
2024/01/30 05:43:48;;;;;;;38.17;15.95;;;;;;;0.23;100.00;100691.81;5097920;28;20055;-65
2024/01/30 05:46:15;;;;;;;35.30;16.50;;;;;;;0.20;100.00;100655.41;5097519;28;20436;-66
2024/01/30 05:48:41;;;;;;;34.33;15.95;;;;;;;0.24;100.00;100634.13;5098087;28;20352;-66
2024/01/30 05:51:08;;;;;;;35.83;15.57;;;;;;;0.17;100.00;100652.41;5097817;28;20087;-65
2024/01/30 05:53:34;;;;;;;35.90;15.73;;;;;;;0.26;100.00;100626.56;5097350;28;20094;-65
2024/01/30 05:56:02;;;;;;;30.27;13.90;;;;;;;0.24;100.00;100590.97;5097533;28;20181;-66
2024/01/30 05:58:28;;;;;;;28.05;13.88;;;;;;;0.16;100.00;100567.97;5097347;28;20079;-66
2024/01/30 06:00:54;;;;;;;37.47;16.13;;;;;;;0.10;100.00;100570.91;5097554;28;20048;-64
2024/01/30 06:03:21;;;;;;;37.65;15.80;;;;;;;-0.12;100.00;100549.50;5097408;28;20051;-67
2024/01/30 06:05:47;;;;;;;36.05;16.08;;;;;;;-0.14;100.00;100617.13;5097696;28;20048;-64
2024/01/30 06:08:13;;;;;;;25.75;15.15;;;;;;;-0.09;100.00;100629.84;5097093;28;20142;-67
2024/01/30 06:10:40;;;;;;;36.00;15.77;;;;;;;-0.33;100.00;100634.78;5097589;28;20047;-63
2024/01/30 06:13:06;;;;;;;33.03;16.20;;;;;;;-0.15;100.00;100674.00;5097052;28;20066;-63
2024/01/30 06:15:32;;;;;;;32.42;16.50;;;;;;;-0.16;100.00;100694.75;5097058;28;20058;-68
2024/01/30 06:17:59;;;;;;;42.58;16.33;;;;;;;-0.04;100.00;100678.38;5096948;28;20047;-64
2024/01/30 06:20:26;;;;;;;34.67;16.50;;;;;;;-0.07;100.00;100652.78;5097012;28;20075;-66
2024/01/30 06:22:52;;;;;;;30.48;15.75;;;;;;;-0.35;100.00;100644.97;5097129;28;20092;-65
2024/01/30 06:25:19;;;;;;;36.00;16.35;;;;;;;-0.01;100.00;100702.97;5096772;28;20432;-65
2024/01/30 06:27:45;;;;;;;34.00;16.05;;;;;;;-0.34;100.00;100682.44;5096381;28;20078;-67
2024/01/30 06:30:12;;;;;;;37.38;15.23;;;;;;;-0.07;100.00;100693.22;5096824;28;20109;-65
2024/01/30 06:32:39;;;;;;;33.33;16.00;;;;;;;0.10;100.00;100693.09;5096770;28;20404;-65
2024/01/30 06:35:06;;;;;;;41.15;17.67;;;;;;;-0.03;100.00;100631.50;5096571;28;20052;-68
2024/01/30 06:37:32;;;;;;;37.22;17.65;;;;;;;-0.05;100.00;100631.75;5096802;28;20063;-67
2024/01/30 06:39:59;;;;;;;30.77;16.02;;;;;;;0.13;100.00;100617.03;5096475;28;20087;-68
2024/01/30 06:42:25;;;;;;;41.35;15.02;;;;;;;-0.04;100.00;100595.63;5096974;28;20054;-67
2024/01/30 06:44:51;;;;;;;33.30;15.70;;;;;;;-0.16;100.00;100586.94;5096380;28;20138;-65
2024/01/30 06:47:17;;;;;;;32.08;15.25;;;;;;;-0.02;100.00;100579.19;5096755;28;20052;-67
2024/01/30 06:49:43;;;;;;;30.35;14.98;;;;;;;-0.28;100.00;100578.22;5096308;28;20063;-66
2024/01/30 06:52:10;;;;;;;30.13;14.10;;;;;;;-0.28;100.00;100597.88;5096577;28;20047;-69
2024/01/30 06:54:36;;;;;;;33.53;15.38;;;;;;;-0.26;100.00;100573.38;5096502;28;20052;-66
2024/01/30 06:57:03;;;;;;;33.88;13.95;;;;;;;0.06;100.00;100564.41;5096516;28;20091;-64
2024/01/30 06:59:29;;;;;;;27.83;14.45;;;;;;;0.01;100.00;100473.53;5096619;28;20049;-68
2024/01/30 07:01:55;;;;;;;25.10;13.57;;;;;;;0.42;100.00;100458.31;5096578;28;20048;-64
2024/01/30 07:04:21;;;;;;;25.63;13.73;;;;;;;0.90;100.00;100366.31;5096401;28;20063;-69
2024/01/30 07:06:47;;;;;;;23.10;14.35;;;;;;;1.33;100.00;100188.47;5095902;28;20052;-66
2024/01/30 07:09:13;;;;;;;23.40;13.75;;;;;;;1.48;100.00;100017.34;5096189;28;20102;-67
2024/01/30 07:11:40;;;;;;;28.77;14.10;;;;;;;1.48;100.00;99915.47;5095978;28;20048;-65
2024/01/30 07:14:07;;;;;;;27.20;13.98;;;;;;;1.56;100.00;99847.28;5096433;28;20104;-64
2024/01/30 07:16:33;;;;;;;26.77;14.05;;;;;;;1.35;100.00;99821.59;5095808;28;20128;-69
2024/01/30 07:18:59;;;;;;;23.75;12.27;;;;;;;1.33;100.00;99800.28;5095754;28;20084;-66
2024/01/30 07:21:28;;;;;;;20.95;11.90;;;;;;;1.99;100.00;99779.69;5096058;28;20062;-67
2024/01/30 07:23:54;;;;;;;24.85;11.27;;;;;;;2.01;100.00;99777.50;5096019;28;20109;-66
2024/01/30 07:26:20;;;;;;;21.48;11.93;;;;;;;2.78;100.00;99778.97;5096202;28;20144;-69
2024/01/30 07:28:47;;;;;;;23.48;12.73;;;;;;;2.70;100.00;99825.66;5095276;28;20054;-67
2024/01/30 07:31:13;;;;;;;19.45;10.05;;;;;;;2.51;100.00;99806.78;5096468;28;20306;-66
2024/01/30 07:33:39;;;;;;;21.90;11.55;;;;;;;2.52;100.00;99851.69;5095874;28;20044;-67
2024/01/30 07:36:06;;;;;;;19.27;11.43;;;;;;;3.14;100.00;99887.50;5096035;28;20047;-67
2024/01/30 07:38:32;;;;;;;22.67;11.88;;;;;;;3.34;100.00;99937.81;5095816;28;20063;-66
2024/01/30 07:40:58;;;;;;;22.90;12.30;;;;;;;3.48;100.00;99967.66;5096238;28;20044;-70
2024/01/30 07:43:24;;;;;;;41.15;12.82;;;;;;;3.77;100.00;100013.53;5095652;28;20052;-67
2024/01/30 07:45:51;;;;;;;26.92;11.70;;;;;;;4.28;100.00;100042.41;5095679;28;20048;-66
2024/01/30 07:48:17;;;;;;;25.90;12.45;;;;;;;4.59;100.00;100106.97;5095789;28;20052;-69
2024/01/30 07:50:43;;;;;;;29.70;10.82;;;;;;;4.22;100.00;100161.13;5095856;28;20091;-69
2024/01/30 07:53:09;;;;;;;23.73;10.88;;;;;;;4.96;100.00;100168.44;5096101;28;20052;-64
2024/01/30 07:55:35;;;;;;;23.20;11.35;;;;;;;4.84;100.00;100204.28;5095467;28;20175;-67
2024/01/30 07:58:03;;;;;;;23.90;12.10;;;;;;;5.04;100.00;100205.78;5095822;28;20181;-67
2024/01/30 08:00:29;;;;;;;24.13;12.75;;;;;;;5.38;100.00;100239.91;5095209;28;20047;-66
2024/01/30 08:02:56;;;;;;;19.30;11.05;;;;;;;5.15;100.00;100247.16;5095624;28;20087;-67
2024/01/30 08:05:23;;;;;;;23.77;10.73;;;;;;;5.56;100.00;100246.31;5095124;28;20052;-68
2024/01/30 08:07:49;;;;;;;25.98;12.18;;;;;;;5.04;100.00;100245.75;5095616;28;20059;-69
2024/01/30 08:10:15;;;;;;;19.73;10.70;;;;;;;4.74;100.00;100256.09;5094973;28;20043;-66
2024/01/30 08:12:42;;;;;;;24.95;11.82;;;;;;;5.48;100.00;100247.03;5095950;28;20105;-67
2024/01/30 08:15:09;;;;;;;23.00;10.52;;;;;;;5.45;100.00;100274.84;5095591;28;20161;-64
2024/01/30 08:17:35;;;;;;;26.30;11.63;;;;;;;6.48;100.00;100269.53;5095172;28;20135;-66
2024/01/30 08:20:04;;;;;;;19.95;11.32;;;;;;;6.70;100.00;100319.72;5095247;28;20457;-68
2024/01/30 08:22:30;;;;;;;20.23;10.52;;;;;;;6.67;100.00;100329.31;5095315;28;20051;-67
2024/01/30 08:24:56;;;;;;;22.90;10.18;;;;;;;6.48;100.00;100325.94;5095660;28;20098;-68
2024/01/30 08:27:22;;;;;;;21.20;10.80;;;;;;;6.47;100.00;100327.06;5095486;28;20060;-65
2024/01/30 08:29:50;;;;;;;16.45;9.00;;;;;;;6.19;100.00;100315.44;5095300;28;20052;-65
2024/01/30 08:32:16;;;;;;;21.48;8.80;;;;;;;5.38;100.00;100311.41;5094822;28;20083;-67
2024/01/30 08:34:42;;;;;;;17.73;9.02;;;;;;;5.62;100.00;100272.31;5095253;28;20125;-67
2024/01/30 08:37:09;;;;;;;20.65;9.20;;;;;;;5.38;100.00;100291.56;5094700;28;20138;-67
2024/01/30 08:39:35;;;;;;;21.05;9.88;;;;;;;5.07;100.00;100270.41;5097824;28;20051;-70
2024/01/30 08:42:01;;;;;;;13.55;8.23;;;;;;;5.34;100.00;100263.38;5098093;28;20135;-69
2024/01/30 08:44:27;;;;;;;20.58;10.60;;;;;;;6.02;100.00;100273.34;5098367;28;20044;-67
2024/01/30 08:46:53;;;;;;;19.65;9.82;;;;;;;5.76;100.00;100277.72;5098706;28;20052;-67
2024/01/30 08:49:20;;;;;;;16.15;9.63;;;;;;;6.21;100.00;100291.47;5098578;28;20071;-65
2024/01/30 08:51:47;;;;;;;20.20;10.73;;;;;;;5.80;100.00;100270.56;5098366;28;20079;-66
2024/01/30 08:54:13;;;;;;;14.02;9.00;;;;;;;5.88;100.00;100288.88;5098412;28;20052;-65
2024/01/30 08:56:40;;;;;;;16.38;9.35;;;;;;;4.80;100.00;100259.50;5098316;28;20105;-67
2024/01/30 08:59:06;;;;;;;22.52;10.05;;;;;;;4.48;100.00;100253.81;5098021;28;20071;-67
2024/01/30 09:01:32;;;;;;;23.45;11.32;;;;;;;4.59;100.00;100208.25;5098363;28;20132;-64
2024/01/30 09:03:58;;;;;;;24.60;11.77;;;;;;;4.22;100.00;100176.59;5097967;28;20059;-67
2024/01/30 09:06:28;;;;;;;22.33;12.05;;;;;;;4.59;100.00;100159.38;5097719;28;20428;-65
2024/01/30 09:08:55;;;;;;;25.85;12.65;;;;;;;4.01;100.00;100146.31;5097869;28;20333;-67
2024/01/30 09:11:22;;;;;;;30.42;12.85;;;;;;;3.27;100.00;100095.38;5098248;28;20363;-65
2024/01/30 09:13:50;;;;;;;37.65;14.25;;;;;;;3.52;100.00;100066.28;5098175;28;20047;-68
2024/01/30 09:16:17;;;;;;;31.00;14.02;;;;;;;3.78;100.00;100072.09;5097870;28;20087;-66
2024/01/30 09:18:46;;;;;;;29.80;13.07;;;;;;;3.75;100.00;100065.34;5098014;28;20058;-68
2024/01/30 09:21:12;;;;;;;30.90;11.10;;;;;;;3.53;100.00;100040.75;5097826;28;20090;-68
2024/01/30 09:23:44;;;;;;;30.02;13.57;;;;;;;3.17;100.00;100027.78;5097932;28;20109;-65
2024/01/30 09:26:18;;;;;;;24.00;11.77;;;;;;;3.00;100.00;99982.28;5097692;28;20067;-66
2024/01/30 09:28:47;;;;;;;36.33;13.15;;;;;;;2.94;100.00;99961.78;5098886;28;20052;-69
2024/01/30 09:31:16;;;;;;;23.33;11.07;;;;;;;2.56;100.00;99909.53;5098682;28;20044;-69
2024/01/30 09:33:49;;;;;;;25.70;11.00;;;;;;;2.68;100.00;99873.91;5098059;28;20109;-65
2024/01/30 09:36:19;;;;;;;23.05;11.75;;;;;;;2.73;100.00;99857.56;5097463;28;20101;-65
2024/01/30 09:38:47;;;;;;;20.70;10.85;;;;;;;2.39;100.00;99874.06;5097711;28;20205;-66
2024/01/30 09:41:15;;;;;;;22.88;11.15;;;;;;;2.53;100.00;99880.34;5097387;28;20052;-67
2024/01/30 09:43:45;;;;;;;23.58;11.30;;;;;;;2.31;100.00;99870.94;5097665;28;20071;-64
2024/01/30 09:46:15;;;;;;;32.58;12.85;;;;;;;2.54;100.00;99838.66;5097756;28;20197;-67
2024/01/30 09:48:42;;;;;;;23.30;11.32;;;;;;;2.62;100.00;99837.97;5097661;28;20340;-65
2024/01/30 09:51:09;;;;;;;29.02;13.48;;;;;;;2.40;100.00;99826.94;5097054;28;20048;-67
2024/01/30 09:53:37;;;;;;;35.33;16.00;;;;;;;2.65;100.00;99823.84;5097471;28;20058;-66
2024/01/30 09:56:04;;;;;;;29.80;14.70;;;;;;;2.70;100.00;99826.50;5097729;28;20099;-67
2024/01/30 09:58:31;;;;;;;31.15;15.43;;;;;;;2.47;100.00;99825.50;5097020;28;20101;-65
2024/01/30 10:00:57;;;;;;;33.15;15.65;;;;;;;2.71;100.00;99809.13;5096926;28;20062;-67
2024/01/30 10:03:25;;;;;;;36.05;15.45;;;;;;;3.05;100.00;99827.75;5096928;28;20482;-67
2024/01/30 10:05:52;;;;;;;39.78;15.65;;;;;;;3.16;100.00;99854.66;5096997;28;20345;-65
2024/01/30 10:08:19;;;;;;;33.10;15.35;;;;;;;3.21;100.00;99879.78;5097111;28;20054;-65
2024/01/30 10:10:46;;;;;;;33.28;14.10;;;;;;;3.22;100.00;99886.78;5096954;28;20052;-66
2024/01/30 10:13:13;;;;;;;29.38;13.05;;;;;;;3.18;100.00;99883.06;5097257;28;20407;-65
2024/01/30 10:15:40;;;;;;;32.17;14.20;;;;;;;3.50;100.00;99889.56;5096672;28;20413;-67
2024/01/30 10:18:07;;;;;;;32.95;13.85;;;;;;;3.32;100.00;99922.94;5097196;28;20051;-66
2024/01/30 10:20:34;;;;;;;31.52;15.02;;;;;;;3.42;100.00;99928.19;5096945;28;20129;-67
2024/01/30 10:23:01;;;;;;;32.28;14.95;;;;;;;3.70;100.00;99924.44;5097476;28;20424;-67
2024/01/30 10:25:28;;;;;;;34.17;14.50;;;;;;;3.80;100.00;99931.56;5096757;28;20104;-66
2024/01/30 10:27:54;;;;;;;25.95;12.88;;;;;;;3.89;100.00;99958.78;5096600;28;20052;-68
2024/01/30 10:30:21;;;;;;;23.25;12.85;;;;;;;4.59;100.00;99963.03;5096648;28;20048;-67
2024/01/30 10:32:47;;;;;;;32.20;12.30;;;;;;;4.26;100.00;99995.75;5097012;28;20051;-68
2024/01/30 10:35:14;;;;;;;25.33;12.52;;;;;;;3.54;100.00;99983.53;5097081;28;20403;-70
2024/01/30 10:37:44;;;;;;;24.77;12.90;;;;;;;3.73;100.00;99952.81;5096777;28;20059;-68
2024/01/30 10:40:14;;;;;;;24.98;11.45;;;;;;;3.72;100.00;99946.59;5097182;28;20063;-69
2024/01/30 10:42:44;;;;;;;21.60;10.77;;;;;;;4.01;100.00;99940.09;5096806;28;20333;-69
2024/01/30 10:45:12;;;;;;;22.23;11.52;;;;;;;3.70;100.00;99964.31;5097244;28;20052;-70
2024/01/30 10:47:41;;;;;;;24.17;12.77;;;;;;;3.80;100.00;99960.56;5096690;28;20052;-68
2024/01/30 10:50:10;;;;;;;23.40;12.50;;;;;;;4.14;100.00;99980.00;5096846;28;20044;-71
2024/01/30 10:52:37;;;;;;;28.52;13.20;;;;;;;4.54;100.00;99993.84;5096522;28;20086;-68
2024/01/30 10:55:06;;;;;;;25.65;13.15;;;;;;;4.82;100.00;99999.19;5096489;28;20498;-69
2024/01/30 10:57:35;;;;;;;24.60;12.80;;;;;;;4.79;100.00;100035.91;5096565;28;20048;-69
2024/01/30 11:00:05;;;;;;;25.95;13.00;;;;;;;4.54;100.00;100031.84;5096363;28;20048;-67
2024/01/30 11:02:32;;;;;;;24.85;12.15;;;;;;;5.14;100.00;100074.31;5095454;28;20052;-66
2024/01/30 11:05:00;;;;;;;26.45;13.02;;;;;;;4.86;100.00;100111.59;5096117;28;20109;-69
2024/01/30 11:07:27;;;;;;;31.10;13.82;;;;;;;4.95;100.00;100105.13;5096692;28;20133;-68